createdAt,value
2023-02-22T00:04:28.074Z,15.15
2023-02-22T00:10:31.484Z,15.13
2023-02-22T00:16:34.908Z,15.65
2023-02-22T00:22:40.246Z,14.93
2023-02-22T00:28:43.640Z,16.08
2023-02-22T00:34:47.874Z,16.20
2023-02-22T00:40:52.874Z,16.17
2023-02-22T00:46:56.454Z,16.17
2023-02-22T00:53:00.193Z,13.63
2023-02-22T00:59:05.006Z,13.98
2023-02-22T01:05:08.888Z,14.68
2023-02-22T01:11:12.356Z,12.77
2023-02-22T01:17:17.122Z,13.55
2023-02-22T01:23:21.164Z,12.13
2023-02-22T01:29:24.547Z,12.85
2023-02-22T01:35:30.830Z,13.00
2023-02-22T01:41:34.430Z,13.88
2023-02-22T01:47:37.950Z,13.45
2023-02-22T01:53:49.419Z,13.45
2023-02-22T01:59:54.348Z,13.55
2023-02-22T02:05:58.600Z,14.07
2023-02-22T02:12:05.138Z,13.90
2023-02-22T02:18:10.548Z,13.40
2023-02-22T02:24:28.457Z,14.65
2023-02-22T02:30:41.517Z,17.10
2023-02-22T02:36:50.737Z,12.82
2023-02-22T02:42:57.900Z,12.98
2023-02-22T02:49:03.036Z,12.65
2023-02-22T02:55:09.206Z,13.00
2023-02-22T03:01:14.333Z,12.75
2023-02-22T03:07:35.850Z,13.77
2023-02-22T03:13:42.817Z,13.82
2023-02-22T03:19:47.498Z,14.15
2023-02-22T03:25:53.775Z,13.73
2023-02-22T03:32:01.647Z,13.25
2023-02-22T03:38:06.649Z,13.77
2023-02-22T03:44:11.452Z,14.35
2023-02-22T03:50:18.084Z,14.93
2023-02-22T03:56:24.297Z,16.88
2023-02-22T04:02:27.687Z,14.73
2023-02-22T04:08:32.418Z,15.30
2023-02-22T04:14:35.795Z,17.40
2023-02-22T04:20:39.218Z,16.35
2023-02-22T04:26:44.219Z,16.00
2023-02-22T04:32:48.604Z,16.08
2023-02-22T04:38:51.997Z,17.80
2023-02-22T04:44:56.803Z,15.32
2023-02-22T04:51:00.285Z,16.63
2023-02-22T04:57:03.706Z,17.65
2023-02-22T05:03:09.013Z,18.25
2023-02-22T05:09:12.415Z,17.45
2023-02-22T05:15:18.344Z,21.35
2023-02-22T05:21:23.612Z,18.95
2023-02-22T05:27:27.204Z,17.98
2023-02-22T05:33:30.584Z,17.17
2023-02-22T05:39:35.319Z,18.52
2023-02-22T05:45:38.781Z,18.40
2023-02-22T05:51:42.211Z,18.35
2023-02-22T05:57:47.131Z,19.83
2023-02-22T06:03:50.711Z,20.30
2023-02-22T06:09:54.170Z,17.50
2023-02-22T06:15:59.187Z,41.22
2023-02-22T06:22:03.264Z,18.40
2023-02-22T06:28:07.141Z,18.55
2023-02-22T06:34:11.932Z,18.73
2023-02-22T06:40:15.606Z,18.23
2023-02-22T06:46:19.521Z,18.27
2023-02-22T06:52:24.484Z,18.00
2023-02-22T06:58:28.023Z,19.75
2023-02-22T07:04:31.631Z,17.98
2023-02-22T07:10:37.380Z,21.40
2023-02-22T07:16:40.822Z,19.25
2023-02-22T07:22:44.363Z,17.13
2023-02-22T07:28:49.512Z,18.90
2023-02-22T07:34:52.896Z,18.70
2023-02-22T07:40:57.908Z,20.10
2023-02-22T07:47:03.512Z,19.20
2023-02-22T07:53:07.717Z,18.73
2023-02-22T07:59:11.358Z,20.15
2023-02-22T08:05:17.227Z,18.40
2023-02-22T08:11:20.607Z,19.80
2023-02-22T08:17:23.979Z,20.70
2023-02-22T08:23:28.799Z,19.30
2023-02-22T08:29:34.072Z,22.52
2023-02-22T08:35:37.462Z,24.13
2023-02-22T08:41:42.221Z,22.60
2023-02-22T08:47:45.729Z,23.95
2023-02-22T08:53:49.145Z,22.75
2023-02-22T08:59:54.459Z,24.05
2023-02-22T09:05:59.508Z,24.05
2023-02-22T09:12:03.373Z,25.58
2023-02-22T09:18:09.361Z,25.92
2023-02-22T09:24:13.074Z,27.13
2023-02-22T09:30:20.737Z,28.73
2023-02-22T09:36:26.282Z,28.10
2023-02-22T09:42:33.807Z,28.67
2023-02-22T09:48:38.814Z,28.38
2023-02-22T09:54:46.021Z,35.40
2023-02-22T10:00:51.585Z,30.73
2023-02-22T10:07:06.093Z,30.13
2023-02-22T10:13:17.116Z,32.10
2023-02-22T10:19:24.270Z,33.35
2023-02-22T10:25:28.730Z,33.90
2023-02-22T10:31:34.673Z,33.63
2023-02-22T10:37:38.411Z,35.47
2023-02-22T10:43:42.343Z,34.13
2023-02-22T10:49:50.247Z,33.95
2023-02-22T10:56:14.477Z,35.03
2023-02-22T11:02:20.630Z,37.65
2023-02-22T11:08:30.744Z,35.78
2023-02-22T11:14:34.305Z,35.80
2023-02-22T11:20:39.066Z,37.15
2023-02-22T11:26:45.183Z,36.22
2023-02-22T11:32:49.730Z,35.85
2023-02-22T11:38:58.618Z,37.17
2023-02-22T11:45:14.673Z,37.83
2023-02-22T11:51:21.905Z,35.97
2023-02-22T11:57:33.514Z,38.90
2023-02-22T12:03:48.316Z,37.03
2023-02-22T12:09:54.644Z,34.92
2023-02-22T12:16:04.383Z,36.88
2023-02-22T12:22:12.567Z,34.97
2023-02-22T12:28:24.735Z,36.40
2023-02-22T12:34:31.931Z,35.88
2023-02-22T12:40:39.429Z,36.38
2023-02-22T12:46:45.935Z,36.08
2023-02-22T12:52:52.032Z,33.92
2023-02-22T12:59:00.125Z,34.45
2023-02-22T13:05:03.917Z,33.33
2023-02-22T13:11:15.015Z,34.05
2023-02-22T13:17:24.372Z,33.33
2023-02-22T13:23:39.021Z,32.58
2023-02-22T13:29:44.066Z,29.67
2023-02-22T13:36:03.093Z,29.05
2023-02-22T13:42:24.096Z,28.20
2023-02-22T13:48:42.998Z,27.60
2023-02-22T13:54:48.638Z,25.40
2023-02-22T14:00:55.360Z,28.92
2023-02-22T14:07:00.750Z,24.65
2023-02-22T14:13:07.836Z,23.50
2023-02-22T14:19:20.438Z,22.27
2023-02-22T14:25:34.599Z,21.77
2023-02-22T14:31:58.053Z,24.20
2023-02-22T14:38:02.973Z,24.70
2023-02-22T14:44:07.570Z,22.80
2023-02-22T14:50:16.518Z,24.50
2023-02-22T14:56:23.477Z,22.33
2023-02-22T15:02:27.001Z,22.38
2023-02-22T15:08:34.147Z,23.58
2023-02-22T15:14:40.976Z,23.98
2023-02-22T15:20:48.305Z,21.38
2023-02-22T15:27:01.622Z,21.50
2023-02-22T15:33:13.079Z,22.27
2023-02-22T15:39:20.803Z,22.08
2023-02-22T15:45:27.133Z,23.00
2023-02-22T15:51:32.865Z,23.63
2023-02-22T15:57:36.698Z,23.30
2023-02-22T16:03:47.111Z,26.13
2023-02-22T16:09:51.213Z,26.13
2023-02-22T16:16:02.559Z,23.05
2023-02-22T16:22:13.740Z,22.95
2023-02-22T16:28:27.796Z,22.05
2023-02-22T16:34:31.286Z,23.13
2023-02-22T16:40:36.772Z,23.92
2023-02-22T16:46:41.982Z,23.80
2023-02-22T16:52:45.541Z,23.42
2023-02-22T16:58:52.804Z,23.15
2023-02-22T17:04:56.587Z,22.38
2023-02-22T17:11:00.893Z,21.70
2023-02-22T17:17:05.733Z,21.88
2023-02-22T17:23:10.022Z,21.98
2023-02-22T17:29:16.157Z,22.73
2023-02-22T17:35:23.260Z,22.27
2023-02-22T17:41:26.818Z,23.27
2023-02-22T17:47:30.206Z,25.92
2023-02-22T17:53:35.019Z,29.42
2023-02-22T17:59:40.486Z,27.98
2023-02-22T18:05:44.577Z,19.73
2023-02-22T18:11:49.412Z,18.70
2023-02-22T18:17:52.937Z,18.98
2023-02-22T18:23:58.164Z,18.08
2023-02-22T18:30:02.988Z,17.33
2023-02-22T18:36:07.107Z,15.90
2023-02-22T18:42:13.349Z,16.05
2023-02-22T18:48:18.077Z,16.58
2023-02-22T18:54:22.172Z,16.38
2023-02-22T19:00:28.719Z,17.13
2023-02-22T19:06:34.969Z,18.60
2023-02-22T19:12:38.427Z,19.65
2023-02-22T19:18:44.113Z,18.83
2023-02-22T19:24:49.075Z,18.98
2023-02-22T19:30:52.516Z,20.02
2023-02-22T19:36:58.321Z,24.48
2023-02-22T19:43:04.030Z,17.88
2023-02-22T19:49:08.317Z,17.90
2023-02-22T19:55:12.838Z,18.30
2023-02-22T20:01:22.883Z,17.83
2023-02-22T20:07:26.497Z,18.45
2023-02-22T20:13:29.914Z,17.98
2023-02-22T20:19:37.265Z,19.73
2023-02-22T20:25:41.662Z,18.88
2023-02-22T20:31:49.270Z,22.73
2023-02-22T20:37:54.859Z,23.20
2023-02-22T20:43:58.659Z,21.20
2023-02-22T20:50:02.410Z,18.80
2023-02-22T20:56:07.884Z,20.70
2023-02-22T21:02:11.717Z,19.80
2023-02-22T21:08:16.583Z,20.70
2023-02-22T21:14:22.606Z,18.98
2023-02-22T21:20:26.010Z,19.23
2023-02-22T21:26:30.256Z,19.73
2023-02-22T21:32:35.536Z,18.95
2023-02-22T21:38:39.401Z,18.70
2023-02-22T21:44:42.877Z,20.55
2023-02-22T21:50:48.122Z,19.98
2023-02-22T21:56:52.511Z,21.65
2023-02-22T22:02:56.263Z,22.88
2023-02-22T22:09:01.135Z,22.13
2023-02-22T22:15:04.643Z,20.20
2023-02-22T22:21:10.735Z,20.95
2023-02-22T22:27:16.701Z,21.23
2023-02-22T22:33:20.173Z,21.42
2023-02-22T22:39:23.578Z,22.48
2023-02-22T22:45:28.354Z,21.33
2023-02-22T22:51:33.604Z,21.85
2023-02-22T22:57:37.238Z,23.13
2023-02-22T23:03:43.804Z,22.13
2023-02-22T23:09:47.217Z,22.08
2023-02-22T23:15:51.032Z,22.85
2023-02-22T23:21:56.180Z,22.67
2023-02-22T23:27:59.978Z,23.02
2023-02-22T23:34:11.240Z,22.42
2023-02-22T23:40:18.323Z,22.52
2023-02-22T23:46:21.730Z,23.83
2023-02-22T23:52:25.103Z,23.42
2023-02-22T23:58:31.799Z,22.88
